createdAt,value
2018-03-14T00:02:01.754Z,7.55
2018-03-14T00:04:27.858Z,8.50
2018-03-14T00:06:53.909Z,7.65
2018-03-14T00:09:20.747Z,8.15
2018-03-14T00:11:46.857Z,8.55
2018-03-14T00:14:12.959Z,6.95
2018-03-14T00:16:39.023Z,8.77
2018-03-14T00:19:05.201Z,8.52
2018-03-14T00:21:31.290Z,6.43
2018-03-14T00:23:57.358Z,7.05
2018-03-14T00:26:23.572Z,8.40
2018-03-14T00:28:49.671Z,6.95
2018-03-14T00:31:16.537Z,5.90
2018-03-14T00:33:42.606Z,8.50
2018-03-14T00:36:08.673Z,9.57
2018-03-14T00:38:34.751Z,6.43
2018-03-14T00:41:00.819Z,7.62
2018-03-14T00:43:26.910Z,5.35
2018-03-14T00:45:53.710Z,6.43
2018-03-14T00:48:20.605Z,6.93
2018-03-14T00:50:47.472Z,6.15
2018-03-14T00:53:14.387Z,6.40
2018-03-14T00:55:40.514Z,5.47
2018-03-14T00:58:06.674Z,5.18
2018-03-14T01:00:32.795Z,5.07
2018-03-14T01:02:58.935Z,5.75
2018-03-14T01:05:25.059Z,5.62
2018-03-14T01:07:51.204Z,4.05
2018-03-14T01:10:17.327Z,4.62
2018-03-14T01:12:43.491Z,4.65
2018-03-14T01:15:09.637Z,5.53
2018-03-14T01:17:35.755Z,5.50
2018-03-14T01:20:01.891Z,4.93
2018-03-14T01:22:27.983Z,4.47
2018-03-14T01:24:54.072Z,4.80
2018-03-14T01:27:20.226Z,4.82
2018-03-14T01:29:46.322Z,5.60
2018-03-14T01:32:12.443Z,4.87
2018-03-14T01:34:39.293Z,4.70
2018-03-14T01:37:05.383Z,5.90
2018-03-14T01:39:31.470Z,4.65
2018-03-14T01:41:58.353Z,5.40
2018-03-14T01:44:24.442Z,4.22
2018-03-14T01:49:19.939Z,4.65
2018-03-14T01:51:46.020Z,3.53
2018-03-14T01:54:12.136Z,4.05
2018-03-14T01:56:38.218Z,4.22
2018-03-14T01:59:04.338Z,6.07
2018-03-14T02:01:30.444Z,4.65
2018-03-14T02:03:56.539Z,5.18
2018-03-14T02:06:22.641Z,5.55
2018-03-14T02:08:48.760Z,4.05
2018-03-14T02:11:14.876Z,4.53
2018-03-14T02:13:41.729Z,5.70
2018-03-14T02:16:08.605Z,4.10
2018-03-14T02:18:34.652Z,4.80
2018-03-14T02:21:00.760Z,4.60
2018-03-14T02:23:27.639Z,5.15
2018-03-14T02:25:53.704Z,5.20
2018-03-14T02:28:19.825Z,6.40
2018-03-14T02:30:45.904Z,4.55
2018-03-14T02:33:12.007Z,4.60
2018-03-14T02:35:38.115Z,5.90
2018-03-14T02:38:04.199Z,5.25
2018-03-14T02:40:30.348Z,5.40
2018-03-14T02:42:56.459Z,5.57
2018-03-14T02:45:22.563Z,6.18
2018-03-14T02:47:49.372Z,6.32
2018-03-14T02:50:15.533Z,6.75
2018-03-14T02:52:41.640Z,6.62
2018-03-14T02:55:07.703Z,6.28
2018-03-14T02:57:33.808Z,5.93
2018-03-14T02:59:59.876Z,6.65
2018-03-14T03:02:26.012Z,7.00
2018-03-14T03:04:52.083Z,5.97
2018-03-14T03:07:18.900Z,6.20
2018-03-14T03:09:45.786Z,6.10
2018-03-14T03:12:12.600Z,5.80
2018-03-14T03:14:38.699Z,5.80
2018-03-14T03:17:04.794Z,6.57
2018-03-14T03:19:30.875Z,6.00
2018-03-14T03:21:56.973Z,7.05
2018-03-14T03:24:23.043Z,5.97
2018-03-14T03:26:49.875Z,6.32
2018-03-14T03:29:15.992Z,6.40
2018-03-14T03:31:42.101Z,6.62
2018-03-14T03:34:08.176Z,7.65
2018-03-14T03:36:34.300Z,5.43
2018-03-14T03:39:00.514Z,5.25
2018-03-14T03:41:26.591Z,6.68
2018-03-14T03:43:52.659Z,5.82
2018-03-14T03:46:19.505Z,17.62
2018-03-14T03:48:46.315Z,6.95
2018-03-14T03:51:12.419Z,6.57
2018-03-14T03:53:38.516Z,6.40
2018-03-14T03:56:04.599Z,6.87
2018-03-14T03:58:30.668Z,6.90
2018-03-14T04:00:56.772Z,6.15
2018-03-14T04:03:22.872Z,7.07
2018-03-14T04:05:48.935Z,8.18
2018-03-14T04:08:15.817Z,7.10
2018-03-14T04:10:41.905Z,7.30
2018-03-14T04:13:08.025Z,8.10
2018-03-14T04:15:34.103Z,7.97
2018-03-14T04:18:00.172Z,7.90
2018-03-14T04:20:26.271Z,6.05
2018-03-14T04:22:52.464Z,8.05
2018-03-14T04:25:18.548Z,7.53
2018-03-14T04:27:45.452Z,8.38
2018-03-14T04:30:11.597Z,7.85
2018-03-14T04:32:38.486Z,8.88
2018-03-14T04:35:04.583Z,8.00
2018-03-14T04:37:30.692Z,7.47
2018-03-14T04:39:57.512Z,7.78
2018-03-14T04:42:23.603Z,7.65
2018-03-14T04:44:49.676Z,8.55
2018-03-14T04:47:15.911Z,8.15
2018-03-14T04:52:12.143Z,13.57
2018-03-14T04:54:38.229Z,7.50
2018-03-14T04:57:04.305Z,6.60
2018-03-14T04:59:30.392Z,8.23
2018-03-14T05:01:56.474Z,6.50
2018-03-14T05:04:23.316Z,6.78
2018-03-14T05:06:49.384Z,6.97
2018-03-14T05:09:15.483Z,7.10
2018-03-14T05:11:41.568Z,7.10
2018-03-14T05:14:07.667Z,6.82
2018-03-14T05:16:33.744Z,6.60
2018-03-14T05:18:59.803Z,6.45
2018-03-14T05:21:25.899Z,6.95
2018-03-14T05:23:52.715Z,7.32
2018-03-14T05:26:18.829Z,7.82
2018-03-14T05:28:44.920Z,8.05
2018-03-14T05:31:11.794Z,8.07
2018-03-14T05:33:37.881Z,7.05
2018-03-14T05:36:03.964Z,8.02
2018-03-14T05:38:30.811Z,7.40
2018-03-14T05:40:57.607Z,7.97
2018-03-14T05:43:23.703Z,8.77
2018-03-14T05:45:50.512Z,8.55
2018-03-14T05:48:16.610Z,8.52
2018-03-14T05:50:42.696Z,8.05
2018-03-14T05:53:08.811Z,7.70
2018-03-14T05:55:35.664Z,7.30
2018-03-14T05:58:01.769Z,8.10
2018-03-14T06:00:28.688Z,7.87
2018-03-14T06:02:54.756Z,9.32
2018-03-14T06:05:21.619Z,8.43
2018-03-14T06:07:48.492Z,8.40
2018-03-14T06:10:14.620Z,9.15
2018-03-14T06:12:41.431Z,8.55
2018-03-14T06:15:07.541Z,9.10
2018-03-14T06:17:33.624Z,10.05
2018-03-14T06:19:59.748Z,8.98
2018-03-14T06:22:25.848Z,9.52
2018-03-14T06:24:51.916Z,8.95
2018-03-14T06:27:18.060Z,8.52
2018-03-14T06:29:44.159Z,9.23
2018-03-14T06:32:10.256Z,9.05
2018-03-14T06:34:36.358Z,10.10
2018-03-14T06:37:02.436Z,8.57
2018-03-14T06:39:28.640Z,7.95
2018-03-14T06:41:54.712Z,8.48
2018-03-14T06:44:20.813Z,8.68
2018-03-14T06:46:46.922Z,8.05
2018-03-14T06:49:13.033Z,7.55
2018-03-14T06:51:39.840Z,6.47
2018-03-14T06:54:05.932Z,8.32
2018-03-14T06:56:32.750Z,7.22
2018-03-14T06:59:11.300Z,7.30
2018-03-14T07:01:49.663Z,6.70
2018-03-14T07:04:27.892Z,8.95
2018-03-14T07:06:53.984Z,8.20
2018-03-14T07:09:20.076Z,7.75
2018-03-14T07:11:46.175Z,7.68
2018-03-14T07:14:12.327Z,7.45
2018-03-14T07:16:39.159Z,7.30
2018-03-14T07:19:05.261Z,7.85
2018-03-14T07:21:31.399Z,8.00
2018-03-14T07:23:57.516Z,7.97
2018-03-14T07:26:23.584Z,8.25
2018-03-14T07:28:49.669Z,7.85
2018-03-14T07:31:16.572Z,7.05
2018-03-14T07:33:42.664Z,10.13
2018-03-14T07:36:09.479Z,8.52
2018-03-14T07:38:35.572Z,8.98
2018-03-14T07:41:01.669Z,7.20
2018-03-14T07:43:27.739Z,8.50
2018-03-14T07:45:53.920Z,9.00
2018-03-14T07:48:20.004Z,7.25
2018-03-14T07:53:18.591Z,8.18
2018-03-14T07:55:44.716Z,9.15
2018-03-14T07:58:10.779Z,8.63
2018-03-14T08:00:36.877Z,8.30
2018-03-14T08:03:02.938Z,8.50
2018-03-14T08:05:29.068Z,7.85
2018-03-14T08:07:55.189Z,8.40
2018-03-14T08:10:21.256Z,8.32
2018-03-14T08:12:47.351Z,8.63
2018-03-14T08:15:13.430Z,8.18
2018-03-14T08:17:39.533Z,8.65
2018-03-14T08:20:05.616Z,8.93
2018-03-14T08:22:31.737Z,9.65
2018-03-14T08:24:57.795Z,9.85
2018-03-14T08:27:23.912Z,8.45
2018-03-14T08:29:50.014Z,8.73
2018-03-14T08:32:16.208Z,9.70
2018-03-14T08:34:42.284Z,9.50
2018-03-14T08:37:09.135Z,8.45
2018-03-14T08:39:35.215Z,9.82
2018-03-14T08:42:01.279Z,8.52
2018-03-14T08:44:27.392Z,8.63
2018-03-14T08:46:53.462Z,8.35
2018-03-14T08:49:19.564Z,9.38
2018-03-14T08:51:45.632Z,9.15
2018-03-14T08:54:11.721Z,8.45
2018-03-14T08:56:37.821Z,8.45
2018-03-14T08:59:03.913Z,8.77
2018-03-14T09:01:29.985Z,10.30
2018-03-14T09:03:56.096Z,9.73
2018-03-14T09:06:22.199Z,8.70
2018-03-14T09:08:48.303Z,9.07
2018-03-14T09:11:14.431Z,9.73
2018-03-14T09:13:40.453Z,9.38
2018-03-14T09:16:06.552Z,10.05
2018-03-14T09:18:32.622Z,9.48
2018-03-14T09:20:58.751Z,8.80
2018-03-14T09:23:24.808Z,8.57
2018-03-14T09:25:50.915Z,10.30
2018-03-14T09:28:16.992Z,8.63
2018-03-14T09:30:43.073Z,9.05
2018-03-14T09:33:09.181Z,9.70
2018-03-14T09:35:35.278Z,8.32
2018-03-14T09:38:01.359Z,9.13
2018-03-14T09:40:27.443Z,8.93
2018-03-14T09:42:53.522Z,9.50
2018-03-14T09:45:19.637Z,9.25
2018-03-14T09:47:45.722Z,8.45
2018-03-14T09:50:12.556Z,8.55
2018-03-14T09:52:38.647Z,12.13
2018-03-14T09:55:04.728Z,8.82
2018-03-14T09:57:30.822Z,8.23
2018-03-14T09:59:56.933Z,9.05
2018-03-14T10:02:23.756Z,7.93
2018-03-14T10:04:49.949Z,9.30
2018-03-14T10:07:16.032Z,7.97
2018-03-14T10:09:42.105Z,8.82
2018-03-14T10:12:08.208Z,7.40
2018-03-14T10:14:34.275Z,7.85
2018-03-14T10:17:01.124Z,7.68
2018-03-14T10:19:27.956Z,7.78
2018-03-14T10:21:54.089Z,8.80
2018-03-14T10:24:20.222Z,7.05
2018-03-14T10:26:46.327Z,6.62
2018-03-14T10:29:12.397Z,8.30
2018-03-14T10:31:38.525Z,8.02
2018-03-14T10:34:04.617Z,8.77
2018-03-14T10:36:31.453Z,8.45
2018-03-14T10:38:57.533Z,7.90
2018-03-14T10:41:23.615Z,8.00
2018-03-14T10:43:49.704Z,7.82
2018-03-14T10:46:15.859Z,8.05
2018-03-14T10:48:41.965Z,8.30
2018-03-14T10:51:08.781Z,7.03
2018-03-14T10:53:34.880Z,7.22
2018-03-14T10:56:01.055Z,8.25
2018-03-14T10:58:27.118Z,6.53
2018-03-14T11:00:56.076Z,7.72
2018-03-14T11:03:28.264Z,7.15
2018-03-14T11:05:54.360Z,7.55
2018-03-14T11:08:21.219Z,8.30
2018-03-14T11:10:48.090Z,8.05
2018-03-14T11:13:14.912Z,8.18
2018-03-14T11:15:41.051Z,5.90
2018-03-14T11:18:07.898Z,6.50
2018-03-14T11:20:33.988Z,7.70
2018-03-14T11:23:00.065Z,8.00
2018-03-14T11:25:26.169Z,7.20
2018-03-14T11:27:52.271Z,8.02
2018-03-14T11:30:19.103Z,8.05
2018-03-14T11:32:45.177Z,8.43
2018-03-14T11:35:12.020Z,8.10
2018-03-14T11:37:38.870Z,7.87
2018-03-14T11:40:05.719Z,9.20
2018-03-14T11:42:31.827Z,7.37
2018-03-14T11:44:57.908Z,7.85
2018-03-14T11:47:24.735Z,7.30
2018-03-14T11:49:50.972Z,8.60
2018-03-14T11:52:17.072Z,7.47
2018-03-14T11:54:43.907Z,8.57
2018-03-14T11:57:09.977Z,8.35
2018-03-14T11:59:36.081Z,7.75
2018-03-14T12:02:02.176Z,8.80
2018-03-14T12:04:28.284Z,8.30
2018-03-14T12:06:54.370Z,7.65
2018-03-14T12:09:20.578Z,7.28
2018-03-14T12:11:46.649Z,6.97
2018-03-14T12:14:12.726Z,8.32
2018-03-14T12:16:38.848Z,9.30
2018-03-14T12:19:05.664Z,8.13
2018-03-14T12:21:31.783Z,8.13
2018-03-14T12:23:57.867Z,9.27
2018-03-14T12:26:24.741Z,7.90
2018-03-14T12:28:50.857Z,7.65
2018-03-14T12:31:16.995Z,8.25
2018-03-14T12:33:43.088Z,8.30
2018-03-14T12:36:09.191Z,7.68
2018-03-14T12:38:36.015Z,7.40
2018-03-14T12:41:02.144Z,8.52
2018-03-14T12:43:28.219Z,7.77
2018-03-14T12:45:55.127Z,8.18
2018-03-14T12:48:21.248Z,7.87
2018-03-14T12:50:47.329Z,7.87
2018-03-14T12:53:13.451Z,7.25
2018-03-14T12:55:39.536Z,7.47
2018-03-14T12:58:06.369Z,8.90
2018-03-14T13:00:32.470Z,8.00
2018-03-14T13:02:58.540Z,8.10
2018-03-14T13:05:24.675Z,7.40
2018-03-14T13:07:50.762Z,8.48
2018-03-14T13:10:16.840Z,7.50
2018-03-14T13:12:42.952Z,7.80
2018-03-14T13:15:09.062Z,7.40
2018-03-14T13:17:35.891Z,7.12
2018-03-14T13:20:02.017Z,8.27
2018-03-14T13:22:28.083Z,8.13
2018-03-14T13:24:54.905Z,8.10
2018-03-14T13:27:21.022Z,6.53
2018-03-14T13:29:47.115Z,6.50
2018-03-14T13:32:13.985Z,7.30
2018-03-14T13:34:40.780Z,7.57
2018-03-14T13:37:06.876Z,7.83
2018-03-14T13:39:33.676Z,7.60
2018-03-14T13:41:59.815Z,8.50
2018-03-14T13:44:25.875Z,8.93
2018-03-14T13:46:51.956Z,9.87
2018-03-14T13:49:18.043Z,9.40
2018-03-14T13:51:44.114Z,7.13
2018-03-14T13:54:10.289Z,7.53
2018-03-14T13:56:36.371Z,8.20
2018-03-14T13:59:02.612Z,7.90
2018-03-14T14:01:28.655Z,8.40
2018-03-14T14:03:54.726Z,8.67
2018-03-14T14:06:20.828Z,8.00
2018-03-14T14:08:46.892Z,7.80
2018-03-14T14:11:13.729Z,8.47
2018-03-14T14:13:39.796Z,7.90
2018-03-14T14:16:05.865Z,8.27
2018-03-14T14:18:31.964Z,6.87
2018-03-14T14:20:58.075Z,7.80
2018-03-14T14:23:24.150Z,7.63
2018-03-14T14:25:50.245Z,7.80
2018-03-14T14:28:16.314Z,7.27
2018-03-14T14:30:42.419Z,7.03
2018-03-14T14:33:08.560Z,8.27
2018-03-14T14:35:34.652Z,8.07
2018-03-14T14:38:00.710Z,8.67
2018-03-14T14:40:26.812Z,7.77
2018-03-14T14:42:52.880Z,7.60
2018-03-14T14:45:19.026Z,8.20
2018-03-14T14:47:45.103Z,7.10
2018-03-14T14:50:11.903Z,7.93
2018-03-14T14:52:37.991Z,8.73
2018-03-14T14:55:04.089Z,8.93
2018-03-14T14:57:30.185Z,7.10
2018-03-14T14:59:56.262Z,8.00
2018-03-14T15:02:22.361Z,7.23
2018-03-14T15:04:49.193Z,6.70
2018-03-14T15:07:15.313Z,6.67
2018-03-14T15:09:41.386Z,6.93
2018-03-14T15:12:08.240Z,8.40
2018-03-14T15:14:35.068Z,7.47
2018-03-14T15:17:01.144Z,6.50
2018-03-14T15:19:27.269Z,6.10
2018-03-14T15:21:53.369Z,7.20
2018-03-14T15:24:19.432Z,7.00
2018-03-14T15:26:46.329Z,7.60
2018-03-14T15:29:12.394Z,7.10
2018-03-14T15:31:38.509Z,6.50
2018-03-14T15:34:04.568Z,7.00
2018-03-14T15:36:30.657Z,7.23
2018-03-14T15:38:57.513Z,5.83
2018-03-14T15:41:24.312Z,6.90
2018-03-14T15:43:50.372Z,6.20
2018-03-14T15:46:16.476Z,10.47
2018-03-14T15:48:42.522Z,6.90
2018-03-14T15:51:08.621Z,6.43
2018-03-14T15:53:34.676Z,6.93
2018-03-14T15:56:00.780Z,7.90
2018-03-14T15:58:27.589Z,5.80
2018-03-14T16:00:53.648Z,6.83
2018-03-14T16:03:19.753Z,8.17
2018-03-14T16:05:45.872Z,5.73
2018-03-14T16:08:11.932Z,6.50
2018-03-14T16:10:38.023Z,5.90
2018-03-14T16:13:04.075Z,6.13
2018-03-14T16:15:30.896Z,6.93
2018-03-14T16:17:57.022Z,9.20
2018-03-14T16:20:23.788Z,8.70
2018-03-14T16:22:49.853Z,7.77
2018-03-14T16:25:16.679Z,8.87
2018-03-14T16:27:42.744Z,10.20
2018-03-14T16:30:09.584Z,9.97
2018-03-14T16:32:35.670Z,9.10
2018-03-14T16:35:01.758Z,9.20
2018-03-14T16:37:27.847Z,14.23
2018-03-14T16:39:54.128Z,14.50
2018-03-14T16:42:20.228Z,12.17
2018-03-14T16:44:46.276Z,10.40
2018-03-14T16:47:12.363Z,11.73
2018-03-14T16:49:39.175Z,10.40
2018-03-14T16:52:05.241Z,10.43
2018-03-14T16:54:31.425Z,10.80
2018-03-14T16:56:57.484Z,11.23
2018-03-14T16:59:23.607Z,13.93
2018-03-14T17:01:49.709Z,12.10
2018-03-14T17:04:15.772Z,11.23
2018-03-14T17:06:41.952Z,10.83
2018-03-14T17:09:08.043Z,10.83
2018-03-14T17:11:34.840Z,11.60
2018-03-14T17:14:00.964Z,9.67
2018-03-14T17:16:27.067Z,7.93
2018-03-14T17:18:53.955Z,11.60
2018-03-14T17:21:20.016Z,8.30
2018-03-14T17:23:46.137Z,7.93
2018-03-14T17:26:12.280Z,9.27
2018-03-14T17:28:38.300Z,12.00
2018-03-14T17:31:04.675Z,14.45
2018-03-14T17:33:30.746Z,12.43
2018-03-14T17:35:56.924Z,13.98
2018-03-14T17:38:23.020Z,13.18
2018-03-14T17:40:49.091Z,13.18
2018-03-14T17:43:15.219Z,12.40
2018-03-14T17:45:41.258Z,12.40
2018-03-14T17:48:07.309Z,13.40
2018-03-14T17:50:33.359Z,16.08
2018-03-14T17:52:59.440Z,22.75
2018-03-14T17:55:25.506Z,25.70
2018-03-14T17:57:51.657Z,22.40
2018-03-14T18:00:17.728Z,23.35
2018-03-14T18:02:43.825Z,24.55
2018-03-14T18:05:09.900Z,35.35
2018-03-14T18:07:35.993Z,29.60
2018-03-14T18:10:02.049Z,28.52
2018-03-14T18:12:28.136Z,29.85
2018-03-14T18:14:54.296Z,28.08
2018-03-14T18:17:21.176Z,20.33
2018-03-14T18:19:47.298Z,14.70
2018-03-14T18:22:14.209Z,15.13
2018-03-14T18:24:40.295Z,14.43
2018-03-14T18:27:06.386Z,14.45
2018-03-14T18:29:32.439Z,14.93
2018-03-14T18:31:58.519Z,13.60
2018-03-14T18:34:24.655Z,13.13
2018-03-14T18:36:50.713Z,14.32
2018-03-14T18:39:16.804Z,14.25
2018-03-14T18:41:43.596Z,18.60
2018-03-14T18:44:09.692Z,20.08
2018-03-14T18:46:35.753Z,21.65
2018-03-14T18:49:01.875Z,22.48
2018-03-14T18:51:28.844Z,22.42
2018-03-14T18:53:56.064Z,20.88
2018-03-14T18:56:23.033Z,21.98
2018-03-14T18:58:49.223Z,28.48
2018-03-14T19:01:15.360Z,31.40
2018-03-14T19:03:42.308Z,55.45
2018-03-14T19:06:08.384Z,52.92
2018-03-14T19:08:34.481Z,56.50
2018-03-14T19:11:00.561Z,122.18
2018-03-14T19:13:26.648Z,114.25
2018-03-14T19:15:53.499Z,92.90
2018-03-14T19:18:20.315Z,38.85
2018-03-14T19:20:46.599Z,25.52
2018-03-14T19:23:13.572Z,21.58
2018-03-14T19:25:39.628Z,22.58
2018-03-14T19:28:05.720Z,22.92
2018-03-14T19:30:31.869Z,19.08
2018-03-14T19:32:58.756Z,18.50
2018-03-14T19:35:24.820Z,18.05
2018-03-14T19:37:50.924Z,19.50
2018-03-14T19:40:17.510Z,17.83
2018-03-14T19:42:43.591Z,20.37
2018-03-14T19:45:10.413Z,22.87
2018-03-14T19:47:36.613Z,23.70
2018-03-14T19:50:02.708Z,22.83
2018-03-14T19:52:28.791Z,19.65
2018-03-14T19:54:54.896Z,20.10
2018-03-14T19:57:21.752Z,18.15
2018-03-14T19:59:48.636Z,18.77
2018-03-14T20:02:14.748Z,18.02
2018-03-14T20:04:41.631Z,20.70
2018-03-14T20:07:08.473Z,20.98
2018-03-14T20:09:34.592Z,21.00
2018-03-14T20:12:01.400Z,17.92
2018-03-14T20:14:27.516Z,18.20
2018-03-14T20:16:53.572Z,19.87
2018-03-14T20:19:19.692Z,22.65
2018-03-14T20:21:45.759Z,23.10
2018-03-14T20:24:11.876Z,22.40
2018-03-14T20:26:37.976Z,24.75
2018-03-14T20:29:04.862Z,22.20
2018-03-14T20:31:31.011Z,23.98
2018-03-14T20:33:57.105Z,34.90
2018-03-14T20:36:23.944Z,27.15
2018-03-14T20:38:50.015Z,24.67
2018-03-14T20:41:16.122Z,29.02
2018-03-14T20:43:42.944Z,26.00
2018-03-14T20:46:09.048Z,23.17
2018-03-14T20:48:35.240Z,22.35
2018-03-14T20:51:01.323Z,22.67
2018-03-14T20:53:27.417Z,28.30
2018-03-14T20:55:53.481Z,22.45
2018-03-14T20:58:19.650Z,23.55
2018-03-14T21:00:45.704Z,21.17
2018-03-14T21:03:11.815Z,21.10
2018-03-14T21:05:37.942Z,21.30
2018-03-14T21:08:04.084Z,21.40
2018-03-14T21:10:30.872Z,20.37
2018-03-14T21:12:56.922Z,21.25
2018-03-14T21:15:23.039Z,20.85
2018-03-14T21:17:49.136Z,21.00
2018-03-14T21:20:15.274Z,22.48
2018-03-14T21:22:41.367Z,21.05
2018-03-14T21:25:07.622Z,20.88
2018-03-14T21:27:33.867Z,20.88
2018-03-14T21:29:59.942Z,19.12
2018-03-14T21:32:26.830Z,18.15
2018-03-14T21:34:52.964Z,17.00
2018-03-14T21:37:19.087Z,17.12
2018-03-14T21:39:45.204Z,17.87
2018-03-14T21:42:12.148Z,18.48
2018-03-14T21:44:38.216Z,19.27
2018-03-14T21:47:04.356Z,19.95
2018-03-14T21:49:30.439Z,17.42
2018-03-14T21:51:56.717Z,18.92
2018-03-14T21:54:23.548Z,18.42
2018-03-14T21:56:49.625Z,18.00
2018-03-14T21:59:15.716Z,19.33
2018-03-14T22:01:41.772Z,16.30
2018-03-14T22:04:07.937Z,16.48
2018-03-14T22:06:34.070Z,17.05
2018-03-14T22:09:00.132Z,17.12
2018-03-14T22:11:26.240Z,17.87
2018-03-14T22:13:53.125Z,17.42
2018-03-14T22:16:19.215Z,17.58
2018-03-14T22:18:45.292Z,17.98
2018-03-14T22:21:11.452Z,18.08
2018-03-14T22:23:37.523Z,16.80
2018-03-14T22:26:03.600Z,18.35
2018-03-14T22:28:29.691Z,15.93
2018-03-14T22:30:56.304Z,21.58
2018-03-14T22:33:22.408Z,18.60
2018-03-14T22:35:48.745Z,19.98
2018-03-14T22:38:15.041Z,20.52
2018-03-14T22:40:41.110Z,20.37
2018-03-14T22:43:07.180Z,17.30
2018-03-14T22:45:34.011Z,17.83
2018-03-14T22:48:00.080Z,17.77
2018-03-14T22:50:26.243Z,16.98
2018-03-14T22:52:52.336Z,18.87
2018-03-14T22:55:18.404Z,20.02
2018-03-14T22:57:44.480Z,20.50
2018-03-14T23:00:10.551Z,19.08
2018-03-14T23:02:37.376Z,16.92
2018-03-14T23:05:03.460Z,18.37
2018-03-14T23:07:29.592Z,18.45
2018-03-14T23:09:55.655Z,20.17
2018-03-14T23:12:21.742Z,18.45
2018-03-14T23:14:47.803Z,20.52
2018-03-14T23:17:13.900Z,19.08
2018-03-14T23:19:39.991Z,15.40
2018-03-14T23:22:06.065Z,15.88
2018-03-14T23:24:32.149Z,16.27
2018-03-14T23:26:59.041Z,17.17
2018-03-14T23:29:25.096Z,16.62
2018-03-14T23:31:51.192Z,15.68
2018-03-14T23:34:17.247Z,15.18
2018-03-14T23:36:43.305Z,15.98
2018-03-14T23:39:09.388Z,16.95
2018-03-14T23:41:36.216Z,17.65
2018-03-14T23:44:02.284Z,17.77
2018-03-14T23:46:29.093Z,16.20
2018-03-14T23:48:55.199Z,15.98
2018-03-14T23:51:21.292Z,16.52
2018-03-14T23:53:47.372Z,16.70
2018-03-14T23:56:13.435Z,17.90
2018-03-14T23:58:39.544Z,16.00
